createdAt,value
2018-12-31T00:01:47.596Z,7.50
2018-12-31T00:04:18.073Z,7.07
2018-12-31T00:06:48.519Z,7.13
2018-12-31T00:09:18.884Z,6.77
2018-12-31T00:11:49.363Z,6.27
2018-12-31T00:14:19.891Z,6.47
2018-12-31T00:16:50.539Z,6.00
2018-12-31T00:19:20.388Z,6.13
2018-12-31T00:21:50.560Z,6.73
2018-12-31T00:24:21.239Z,6.87
2018-12-31T00:26:51.829Z,7.03
2018-12-31T00:29:22.472Z,5.43
2018-12-31T00:31:53.039Z,5.97
2018-12-31T00:34:23.515Z,6.57
2018-12-31T00:36:53.803Z,6.90
2018-12-31T00:39:24.408Z,6.07
2018-12-31T00:41:54.909Z,6.27
2018-12-31T00:44:25.473Z,5.93
2018-12-31T00:46:55.978Z,5.77
2018-12-31T00:49:26.150Z,6.00
2018-12-31T00:51:56.619Z,5.83
2018-12-31T00:54:27.062Z,5.53
2018-12-31T00:56:57.536Z,6.43
2018-12-31T00:59:28.002Z,5.53
2018-12-31T01:01:58.542Z,5.90
2018-12-31T01:04:29.044Z,5.30
2018-12-31T01:06:59.264Z,5.70
2018-12-31T01:09:29.594Z,6.07
2018-12-31T01:12:00.069Z,5.83
2018-12-31T01:14:30.802Z,6.27
2018-12-31T01:17:01.444Z,5.90
2018-12-31T01:19:31.622Z,6.20
2018-12-31T01:22:01.598Z,6.13
2018-12-31T01:24:32.118Z,6.60
2018-12-31T01:27:02.597Z,5.37
2018-12-31T01:29:33.072Z,5.77
2018-12-31T01:32:03.258Z,5.40
2018-12-31T01:34:33.580Z,7.00
2018-12-31T01:37:04.050Z,6.53
2018-12-31T01:39:34.526Z,7.00
2018-12-31T01:42:05.016Z,7.40
2018-12-31T01:44:35.326Z,7.70
2018-12-31T01:47:05.877Z,7.13
2018-12-31T01:49:36.533Z,6.87
2018-12-31T01:52:07.080Z,6.77
2018-12-31T01:54:37.589Z,6.97
2018-12-31T01:57:08.125Z,7.30
2018-12-31T01:59:38.685Z,7.17
2018-12-31T02:02:09.197Z,6.37
2018-12-31T02:04:39.759Z,7.43
2018-12-31T02:07:10.291Z,6.33
2018-12-31T02:09:40.823Z,6.97
2018-12-31T02:12:11.355Z,6.83
2018-12-31T02:14:41.883Z,6.73
2018-12-31T02:17:12.111Z,6.10
2018-12-31T02:19:42.603Z,6.50
2018-12-31T02:22:13.139Z,6.80
2018-12-31T02:24:43.597Z,6.60
2018-12-31T02:27:13.521Z,7.00
2018-12-31T02:29:44.143Z,6.67
2018-12-31T02:32:14.631Z,6.53
2018-12-31T02:34:45.173Z,6.93
2018-12-31T02:37:15.605Z,6.53
2018-12-31T02:39:45.904Z,6.20
2018-12-31T02:42:16.463Z,6.03
2018-12-31T02:44:46.729Z,6.47
2018-12-31T02:47:17.323Z,6.27
2018-12-31T02:49:48.039Z,6.30
2018-12-31T02:52:18.595Z,5.67
2018-12-31T02:54:49.145Z,6.43
2018-12-31T02:57:19.645Z,6.90
2018-12-31T02:59:50.120Z,5.37
2018-12-31T03:02:20.239Z,5.97
2018-12-31T03:04:50.861Z,5.80
2018-12-31T03:07:21.461Z,5.30
2018-12-31T03:09:51.442Z,5.87
2018-12-31T03:12:21.908Z,5.80
2018-12-31T03:14:52.146Z,5.40
2018-12-31T03:17:22.310Z,4.90
2018-12-31T03:19:52.494Z,5.57
2018-12-31T03:22:23.106Z,5.50
2018-12-31T03:24:53.572Z,4.70
2018-12-31T03:27:23.816Z,4.57
2018-12-31T03:29:54.441Z,3.70
2018-12-31T03:32:24.649Z,4.20
2018-12-31T03:34:55.408Z,3.70
2018-12-31T03:37:26.009Z,3.13
2018-12-31T03:39:56.302Z,3.17
2018-12-31T03:42:26.754Z,3.30
2018-12-31T03:44:57.243Z,3.30
2018-12-31T03:47:27.452Z,3.13
2018-12-31T03:49:57.957Z,2.90
2018-12-31T03:52:28.584Z,2.60
2018-12-31T03:54:59.178Z,2.77
2018-12-31T03:57:29.694Z,2.90
2018-12-31T04:00:00.348Z,2.70
2018-12-31T04:02:30.858Z,2.80
2018-12-31T04:05:01.400Z,2.53
2018-12-31T04:07:31.784Z,2.70
2018-12-31T04:10:02.048Z,2.03
2018-12-31T04:12:32.640Z,2.30
2018-12-31T04:15:03.208Z,2.20
2018-12-31T04:17:33.030Z,2.40
2018-12-31T04:20:03.658Z,2.40
2018-12-31T04:22:34.134Z,2.20
2018-12-31T04:25:04.004Z,2.30
2018-12-31T04:27:33.832Z,2.10
2018-12-31T04:30:04.450Z,2.33
2018-12-31T04:32:34.797Z,2.20
2018-12-31T04:35:05.305Z,2.20
2018-12-31T04:37:35.506Z,2.10
2018-12-31T04:40:06.158Z,2.00
2018-12-31T04:42:36.350Z,2.00
2018-12-31T04:45:06.897Z,1.90
2018-12-31T04:47:37.140Z,2.00
2018-12-31T04:50:07.794Z,2.03
2018-12-31T04:52:38.354Z,1.83
2018-12-31T04:55:09.044Z,1.90
2018-12-31T04:57:39.640Z,1.47
2018-12-31T05:00:09.722Z,1.70
2018-12-31T05:02:39.540Z,2.10
2018-12-31T05:05:09.944Z,2.10
2018-12-31T05:07:39.858Z,2.20
2018-12-31T05:10:10.497Z,2.00
2018-12-31T05:12:41.108Z,2.07
2018-12-31T05:15:11.673Z,2.00
2018-12-31T05:17:42.271Z,2.23
2018-12-31T05:20:12.822Z,1.90
2018-12-31T05:22:43.331Z,1.70
2018-12-31T05:25:14.013Z,1.77
2018-12-31T05:27:44.524Z,1.97
2018-12-31T05:30:14.425Z,2.10
2018-12-31T05:32:45.019Z,1.70
2018-12-31T05:35:15.337Z,2.03
2018-12-31T05:37:45.895Z,2.23
2018-12-31T05:40:16.141Z,2.03
2018-12-31T05:42:46.784Z,2.07
2018-12-31T05:45:17.058Z,2.10
2018-12-31T05:47:47.372Z,2.50
2018-12-31T05:50:17.853Z,1.90
2018-12-31T05:53:07.058Z,2.13
2018-12-31T05:55:37.218Z,2.37
2018-12-31T05:58:07.506Z,2.33
2018-12-31T06:00:38.053Z,2.20
2018-12-31T06:03:08.520Z,2.10
2018-12-31T06:05:39.084Z,2.10
2018-12-31T06:08:09.325Z,1.97
2018-12-31T06:10:39.919Z,2.20
2018-12-31T06:13:10.141Z,2.10
2018-12-31T06:15:40.599Z,2.10
2018-12-31T06:18:11.084Z,1.97
2018-12-31T06:20:41.719Z,1.90
2018-12-31T06:23:12.301Z,2.20
2018-12-31T06:25:42.138Z,2.30
2018-12-31T06:28:12.349Z,1.80
2018-12-31T06:30:42.577Z,1.90
2018-12-31T06:33:13.107Z,2.00
2018-12-31T06:35:43.619Z,1.80
2018-12-31T06:38:13.846Z,2.20
2018-12-31T06:40:44.384Z,2.10
2018-12-31T06:43:14.867Z,1.70
2018-12-31T06:45:45.096Z,1.53
2018-12-31T06:48:15.679Z,1.80
2018-12-31T06:50:46.280Z,2.47
2018-12-31T06:53:16.211Z,2.53
2018-12-31T06:55:46.422Z,2.80
2018-12-31T06:58:16.539Z,2.73
2018-12-31T07:00:46.994Z,6.07
2018-12-31T07:03:17.247Z,40.50
2018-12-31T07:05:47.770Z,11.17
2018-12-31T07:08:18.305Z,3.80
2018-12-31T07:10:48.506Z,4.50
2018-12-31T07:13:19.104Z,2.97
2018-12-31T07:15:49.765Z,4.03
2018-12-31T07:18:20.396Z,4.13
2018-12-31T07:20:51.043Z,3.67
2018-12-31T07:23:21.599Z,3.20
2018-12-31T07:25:52.078Z,2.70
2018-12-31T07:28:22.735Z,2.00
2018-12-31T07:30:53.265Z,1.90
2018-12-31T07:33:23.770Z,2.00
2018-12-31T07:35:53.941Z,1.90
2018-12-31T07:38:24.532Z,1.90
2018-12-31T07:40:55.215Z,1.90
2018-12-31T07:43:25.797Z,3.27
2018-12-31T07:45:56.302Z,3.27
2018-12-31T07:48:29.373Z,3.20
2018-12-31T07:50:59.950Z,3.77
2018-12-31T07:53:30.128Z,3.23
2018-12-31T07:56:00.322Z,4.60
2018-12-31T07:58:30.944Z,4.03
2018-12-31T08:01:01.493Z,3.63
2018-12-31T08:03:31.751Z,5.07
2018-12-31T08:06:02.287Z,3.73
2018-12-31T08:08:32.478Z,4.80
2018-12-31T08:11:03.478Z,5.00
2018-12-31T08:13:33.662Z,4.43
2018-12-31T08:16:03.581Z,8.63
2018-12-31T08:18:34.064Z,6.77
2018-12-31T08:21:04.627Z,7.67
2018-12-31T08:23:35.219Z,5.50
2018-12-31T08:26:05.895Z,4.07
2018-12-31T08:28:36.482Z,5.13
2018-12-31T08:31:07.131Z,4.90
2018-12-31T08:33:36.687Z,4.27
2018-12-31T08:36:06.629Z,3.13
2018-12-31T08:38:36.813Z,2.97
2018-12-31T08:41:07.474Z,2.80
2018-12-31T08:43:38.035Z,2.30
2018-12-31T08:46:08.615Z,2.13
2018-12-31T08:48:38.812Z,2.33
2018-12-31T08:51:09.567Z,3.63
2018-12-31T08:53:40.231Z,2.40
2018-12-31T08:56:10.729Z,2.83
2018-12-31T08:58:41.263Z,3.10
2018-12-31T09:01:11.823Z,2.63
2018-12-31T09:03:42.361Z,2.00
2018-12-31T09:06:12.741Z,1.73
2018-12-31T09:08:43.015Z,1.50
2018-12-31T09:11:13.543Z,1.70
2018-12-31T09:13:43.457Z,2.33
2018-12-31T09:16:13.403Z,1.90
2018-12-31T09:18:43.611Z,2.10
2018-12-31T09:21:13.836Z,2.10
2018-12-31T09:23:44.159Z,1.50
2018-12-31T09:26:14.709Z,1.70
2018-12-31T09:28:45.315Z,1.93
2018-12-31T09:31:15.926Z,2.27
2018-12-31T09:33:46.542Z,2.80
2018-12-31T09:36:17.023Z,1.80
2018-12-31T09:38:47.190Z,1.80
2018-12-31T09:41:17.748Z,1.40
2018-12-31T09:43:47.937Z,1.90
2018-12-31T09:46:18.135Z,1.40
2018-12-31T09:48:48.347Z,1.60
2018-12-31T09:51:18.969Z,1.60
2018-12-31T09:53:49.466Z,2.70
2018-12-31T09:56:38.368Z,1.40
2018-12-31T09:59:08.890Z,1.50
2018-12-31T10:01:39.083Z,1.73
2018-12-31T10:04:09.629Z,1.60
2018-12-31T10:06:39.850Z,1.20
2018-12-31T10:09:11.985Z,1.00
2018-12-31T10:11:42.483Z,1.50
2018-12-31T10:14:13.194Z,1.37
2018-12-31T10:16:43.705Z,1.40
2018-12-31T10:19:13.565Z,1.40
2018-12-31T10:21:44.214Z,1.90
2018-12-31T10:24:14.884Z,1.60
2018-12-31T10:26:45.147Z,1.60
2018-12-31T10:29:15.381Z,1.50
2018-12-31T10:31:45.544Z,1.60
2018-12-31T10:34:16.046Z,1.80
2018-12-31T10:36:46.574Z,2.03
2018-12-31T10:39:17.117Z,1.97
2018-12-31T10:41:47.678Z,1.80
2018-12-31T10:44:18.136Z,1.83
2018-12-31T10:46:48.655Z,2.30
2018-12-31T10:49:19.236Z,3.10
2018-12-31T10:51:49.470Z,2.73
2018-12-31T10:54:20.135Z,2.70
2018-12-31T10:56:50.558Z,2.90
2018-12-31T10:59:21.137Z,3.23
2018-12-31T11:01:51.680Z,3.30
2018-12-31T11:04:22.318Z,3.40
2018-12-31T11:06:52.780Z,3.67
2018-12-31T11:09:22.994Z,3.80
2018-12-31T11:11:54.671Z,8.07
2018-12-31T11:14:24.554Z,5.43
2018-12-31T11:16:54.850Z,4.27
2018-12-31T11:19:25.359Z,4.20
2018-12-31T11:21:55.951Z,4.00
2018-12-31T11:24:26.470Z,4.43
2018-12-31T11:26:57.080Z,4.80
2018-12-31T11:29:27.328Z,6.47
2018-12-31T11:31:57.650Z,4.90
2018-12-31T11:34:27.874Z,5.03
2018-12-31T11:36:58.153Z,4.33
2018-12-31T11:39:28.798Z,4.47
2018-12-31T11:41:59.364Z,4.17
2018-12-31T11:44:29.594Z,3.77
2018-12-31T11:47:00.174Z,7.37
2018-12-31T11:49:30.751Z,3.43
2018-12-31T11:52:01.390Z,4.30
2018-12-31T11:54:31.888Z,4.43
2018-12-31T11:57:02.343Z,4.20
2018-12-31T11:59:32.188Z,4.70
2018-12-31T12:02:02.600Z,3.17
2018-12-31T12:04:32.531Z,2.80
2018-12-31T12:07:03.658Z,3.07
2018-12-31T12:09:34.605Z,2.90
2018-12-31T12:12:05.426Z,2.30
2018-12-31T12:14:36.055Z,1.70
2018-12-31T12:17:06.718Z,2.70
2018-12-31T12:19:37.423Z,5.57
2018-12-31T12:22:07.936Z,1.70
2018-12-31T12:24:38.727Z,2.57
2018-12-31T12:27:09.247Z,1.33
2018-12-31T12:29:39.571Z,1.50
2018-12-31T12:32:09.887Z,3.60
2018-12-31T12:34:40.436Z,3.30
2018-12-31T12:37:11.522Z,2.60
2018-12-31T12:39:42.085Z,2.70
2018-12-31T12:42:13.532Z,1.53
2018-12-31T12:44:44.654Z,3.80
2018-12-31T12:47:15.748Z,2.93
2018-12-31T12:49:47.985Z,5.30
2018-12-31T12:52:18.579Z,2.90
2018-12-31T12:54:49.039Z,4.03
2018-12-31T12:57:19.477Z,2.13
2018-12-31T12:59:49.963Z,2.57
2018-12-31T13:02:20.288Z,2.63
2018-12-31T13:04:50.455Z,2.60
2018-12-31T13:07:20.736Z,3.03
2018-12-31T13:09:50.551Z,3.13
2018-12-31T13:12:20.479Z,3.87
2018-12-31T13:14:50.865Z,3.23
2018-12-31T13:17:21.441Z,3.20
2018-12-31T13:20:10.689Z,2.67
2018-12-31T13:22:41.556Z,2.67
2018-12-31T13:25:11.783Z,2.90
2018-12-31T13:27:42.224Z,3.53
2018-12-31T13:30:13.207Z,4.70
2018-12-31T13:32:43.411Z,4.03
2018-12-31T13:35:13.794Z,3.70
2018-12-31T13:37:44.425Z,3.50
2018-12-31T13:40:15.017Z,3.60
2018-12-31T13:43:03.943Z,3.10
2018-12-31T13:45:34.177Z,3.70
2018-12-31T13:48:04.704Z,3.53
2018-12-31T13:50:34.805Z,3.63
2018-12-31T13:53:04.949Z,3.83
2018-12-31T13:55:35.363Z,4.00
2018-12-31T13:58:05.816Z,5.07
2018-12-31T14:00:35.780Z,5.70
2018-12-31T14:03:06.476Z,7.83
2018-12-31T14:05:37.008Z,6.23
2018-12-31T14:08:07.607Z,6.23
2018-12-31T14:10:37.845Z,15.47
2018-12-31T14:13:08.453Z,9.83
2018-12-31T14:15:38.733Z,8.40
2018-12-31T14:18:09.354Z,6.70
2018-12-31T14:20:39.627Z,5.63
2018-12-31T14:23:10.574Z,7.30
2018-12-31T14:25:42.091Z,7.17
2018-12-31T14:28:12.995Z,6.70
2018-12-31T14:30:44.008Z,6.90
2018-12-31T14:33:16.497Z,6.13
2018-12-31T14:35:49.851Z,6.73
2018-12-31T14:38:21.107Z,7.50
2018-12-31T14:40:51.641Z,8.60
2018-12-31T14:43:22.181Z,8.00
2018-12-31T14:45:52.137Z,8.97
2018-12-31T14:48:41.471Z,9.33
2018-12-31T14:51:11.713Z,9.90
2018-12-31T14:53:42.548Z,10.50
2018-12-31T14:56:13.117Z,9.80
2018-12-31T14:58:43.804Z,9.80
2018-12-31T15:01:13.987Z,9.93
2018-12-31T15:03:44.412Z,10.10
2018-12-31T15:06:14.995Z,10.00
2018-12-31T15:08:45.475Z,14.13
2018-12-31T15:11:15.498Z,13.73
2018-12-31T15:13:46.144Z,12.40
2018-12-31T15:16:17.139Z,12.90
2018-12-31T15:18:47.755Z,11.93
2018-12-31T15:21:17.679Z,13.00
2018-12-31T15:23:47.601Z,13.50
2018-12-31T15:26:18.184Z,11.73
2018-12-31T15:28:49.091Z,12.13
2018-12-31T15:31:19.445Z,15.83
2018-12-31T15:33:50.415Z,13.50
2018-12-31T15:36:22.319Z,13.60
2018-12-31T15:38:53.039Z,13.53
2018-12-31T15:41:23.459Z,12.57
2018-12-31T15:43:54.068Z,13.10
2018-12-31T15:46:24.718Z,12.10
2018-12-31T15:48:55.388Z,10.93
2018-12-31T15:51:35.095Z,10.50
2018-12-31T15:54:05.874Z,11.00
2018-12-31T15:56:36.670Z,10.83
2018-12-31T15:59:07.211Z,10.77
2018-12-31T16:01:39.550Z,13.97
2018-12-31T16:04:09.766Z,14.87
2018-12-31T16:06:40.453Z,12.80
2018-12-31T16:09:10.676Z,13.00
2018-12-31T16:11:41.353Z,12.73
2018-12-31T16:14:11.935Z,12.33
2018-12-31T16:16:42.528Z,10.90
2018-12-31T16:19:13.150Z,11.53
2018-12-31T16:21:43.797Z,11.07
2018-12-31T16:24:14.179Z,11.63
2018-12-31T16:26:43.979Z,12.60
2018-12-31T16:29:14.651Z,12.20
2018-12-31T16:31:45.330Z,11.53
2018-12-31T16:34:16.142Z,13.20
2018-12-31T16:36:46.392Z,12.37
2018-12-31T16:39:17.043Z,11.60
2018-12-31T16:41:47.269Z,9.80
2018-12-31T16:44:18.010Z,9.43
2018-12-31T16:46:48.451Z,8.47
2018-12-31T16:49:18.333Z,8.10
2018-12-31T16:51:48.961Z,7.93
2018-12-31T16:54:19.751Z,8.30
2018-12-31T16:56:50.729Z,7.97
2018-12-31T16:59:21.324Z,7.13
2018-12-31T17:01:51.535Z,6.83
2018-12-31T17:04:22.143Z,6.70
2018-12-31T17:06:52.411Z,7.33
2018-12-31T17:09:22.965Z,8.37
2018-12-31T17:11:53.557Z,6.77
2018-12-31T17:14:23.763Z,6.57
2018-12-31T17:16:54.403Z,6.90
2018-12-31T17:19:25.047Z,8.27
2018-12-31T17:21:55.220Z,6.70
2018-12-31T17:24:25.504Z,5.77
2018-12-31T17:26:55.838Z,7.30
2018-12-31T17:29:45.212Z,8.27
2018-12-31T17:32:15.483Z,7.90
2018-12-31T17:34:46.187Z,9.03
2018-12-31T17:37:16.759Z,9.43
2018-12-31T17:39:47.376Z,9.87
2018-12-31T17:42:17.963Z,9.50
2018-12-31T17:44:48.188Z,10.47
2018-12-31T17:47:18.602Z,10.40
2018-12-31T17:49:48.973Z,11.03
2018-12-31T17:52:19.870Z,10.27
2018-12-31T17:54:50.423Z,10.77
2018-12-31T17:57:20.892Z,10.63
2018-12-31T17:59:50.892Z,11.17
2018-12-31T18:02:21.197Z,10.37
2018-12-31T18:04:51.959Z,10.10
2018-12-31T18:07:22.389Z,10.90
2018-12-31T18:09:52.627Z,11.30
2018-12-31T18:12:23.083Z,10.73
2018-12-31T18:14:54.066Z,11.50
2018-12-31T18:17:24.651Z,11.00
2018-12-31T18:19:55.204Z,11.10
2018-12-31T18:22:25.937Z,9.33
2018-12-31T18:24:56.380Z,10.43
2018-12-31T18:27:26.710Z,10.77
2018-12-31T18:29:57.308Z,10.73
2018-12-31T18:32:27.826Z,10.90
2018-12-31T18:34:58.402Z,10.70
2018-12-31T18:37:29.077Z,11.17
2018-12-31T18:39:59.378Z,9.40
2018-12-31T18:42:29.644Z,9.47
2018-12-31T18:45:00.235Z,10.23
2018-12-31T18:47:30.426Z,9.83
2018-12-31T18:50:01.039Z,10.47
2018-12-31T18:52:31.646Z,14.50
2018-12-31T18:55:02.187Z,9.87
2018-12-31T18:57:32.070Z,10.37
2018-12-31T19:00:01.992Z,9.63
2018-12-31T19:02:32.470Z,9.93
2018-12-31T19:05:02.850Z,10.20
2018-12-31T19:07:33.306Z,10.07
2018-12-31T19:10:03.536Z,9.60
2018-12-31T19:12:34.556Z,12.23
2018-12-31T19:15:04.873Z,9.13
2018-12-31T19:17:35.444Z,9.00
2018-12-31T19:20:06.307Z,8.30
2018-12-31T19:22:36.568Z,8.50
2018-12-31T19:25:07.309Z,8.30
2018-12-31T19:27:37.860Z,8.53
2018-12-31T19:30:08.567Z,7.90
2018-12-31T19:32:39.069Z,7.47
2018-12-31T19:35:09.630Z,12.90
2018-12-31T19:37:40.207Z,9.97
2018-12-31T19:40:10.724Z,11.50
2018-12-31T19:42:41.227Z,11.13
2018-12-31T19:45:11.704Z,11.57
2018-12-31T19:47:42.245Z,10.37
2018-12-31T19:50:12.617Z,9.27
2018-12-31T19:52:43.085Z,9.63
2018-12-31T19:55:13.074Z,10.50
2018-12-31T19:57:43.810Z,9.20
2018-12-31T20:00:14.376Z,8.70
2018-12-31T20:02:44.348Z,9.80
2018-12-31T20:05:14.982Z,10.33
2018-12-31T20:07:44.489Z,8.83
2018-12-31T20:10:14.980Z,10.67
2018-12-31T20:12:44.903Z,10.23
2018-12-31T20:15:15.414Z,9.73
2018-12-31T20:17:45.673Z,9.83
2018-12-31T20:20:16.139Z,8.50
2018-12-31T20:22:46.933Z,8.43
2018-12-31T20:25:17.619Z,8.67
2018-12-31T20:27:48.250Z,8.33
2018-12-31T20:30:18.481Z,8.40
2018-12-31T20:32:49.234Z,8.70
2018-12-31T20:35:20.065Z,7.60
2018-12-31T20:37:50.686Z,8.10
2018-12-31T20:40:20.971Z,7.97
2018-12-31T20:42:51.571Z,8.47
2018-12-31T20:45:22.373Z,8.33
2018-12-31T20:47:52.705Z,8.27
2018-12-31T20:50:23.210Z,7.90
2018-12-31T20:52:53.772Z,8.50
2018-12-31T20:55:24.243Z,8.77
2018-12-31T20:57:54.769Z,7.97
2018-12-31T21:00:25.456Z,8.30
2018-12-31T21:02:55.791Z,9.50
2018-12-31T21:05:26.508Z,7.87
2018-12-31T21:07:57.061Z,8.07
2018-12-31T21:10:27.380Z,7.97
2018-12-31T21:12:58.046Z,8.20
2018-12-31T21:15:27.639Z,8.37
2018-12-31T21:17:57.937Z,7.50
2018-12-31T21:20:28.720Z,7.97
2018-12-31T21:22:59.571Z,7.93
2018-12-31T21:25:30.023Z,8.37
2018-12-31T21:28:00.603Z,8.50
2018-12-31T21:30:31.080Z,8.67
2018-12-31T21:33:01.604Z,8.03
2018-12-31T21:35:32.087Z,8.40
2018-12-31T21:38:02.827Z,8.17
2018-12-31T21:40:34.209Z,8.60
2018-12-31T21:43:04.945Z,8.27
2018-12-31T21:45:35.664Z,8.70
2018-12-31T21:48:06.344Z,9.03
2018-12-31T21:50:36.615Z,9.33
2018-12-31T21:53:06.852Z,8.83
2018-12-31T21:55:37.127Z,9.30
2018-12-31T21:58:07.802Z,9.27
2018-12-31T22:00:38.573Z,8.93
2018-12-31T22:03:09.133Z,9.37
2018-12-31T22:05:39.955Z,12.27
2018-12-31T22:08:10.129Z,10.27
2018-12-31T22:10:40.619Z,8.80
2018-12-31T22:13:11.501Z,10.13
2018-12-31T22:15:41.992Z,9.83
2018-12-31T22:18:12.603Z,10.37
2018-12-31T22:20:42.803Z,10.27
2018-12-31T22:23:12.987Z,12.20
2018-12-31T22:25:43.197Z,11.63
2018-12-31T22:28:13.475Z,11.70
2018-12-31T22:30:43.941Z,10.97
2018-12-31T22:33:14.748Z,7.77
2018-12-31T22:35:45.389Z,10.33
2018-12-31T22:38:15.611Z,10.07
2018-12-31T22:40:45.777Z,11.20
2018-12-31T22:43:16.039Z,11.17
2018-12-31T22:45:47.195Z,12.33
2018-12-31T22:48:17.361Z,8.37
2018-12-31T22:50:47.517Z,12.00
2018-12-31T22:53:18.077Z,12.50
2018-12-31T22:55:48.356Z,11.23
2018-12-31T22:58:18.928Z,10.73
2018-12-31T23:00:50.907Z,10.77
2018-12-31T23:03:20.407Z,16.97
2018-12-31T23:05:50.601Z,28.97
2018-12-31T23:08:21.168Z,17.93
2018-12-31T23:10:51.471Z,82.53
2018-12-31T23:13:21.451Z,108.53
2018-12-31T23:15:52.139Z,74.83
2018-12-31T23:18:22.715Z,43.87
2018-12-31T23:20:52.609Z,47.17
2018-12-31T23:23:23.328Z,51.30
2018-12-31T23:25:53.509Z,30.43
2018-12-31T23:28:23.794Z,22.53
2018-12-31T23:30:54.273Z,32.67
2018-12-31T23:33:24.796Z,65.47
2018-12-31T23:35:55.068Z,52.83
2018-12-31T23:38:25.594Z,64.47
2018-12-31T23:40:56.079Z,54.47
2018-12-31T23:43:27.333Z,55.60
2018-12-31T23:45:58.122Z,47.60
2018-12-31T23:48:28.661Z,29.63
2018-12-31T23:50:58.856Z,25.03
2018-12-31T23:53:29.131Z,27.67
2018-12-31T23:55:59.537Z,30.57
2018-12-31T23:58:29.800Z,30.87
